Time;durP1;ratioP1;P1;durP2;ratioP2;P2;SDS_P1;SDS_P2;PMS_P1;PMS_P2;Temp;Humidity;BMP_temperature;BMP_pressure;BME280_temperature;BME280_humidity;BME280_pressure;Samples;Min_cycle;Max_cycle;Signal;HPM_P1;HPM_P2
2022/08/26 00:02:07;;;;;;;;;;;24.90;76.10;;;;;;5027922;28;19948;-95
2022/08/26 00:04:33;;;;;;;;;;;24.90;75.90;;;;;;5027273;28;19966;-96
2022/08/26 00:06:59;;;;;;;;;;;24.80;76.10;;;;;;5032106;28;19938;-96
2022/08/26 00:09:25;;;;;;;;;;;24.80;76.20;;;;;;5032610;28;19943;-96
2022/08/26 00:11:51;;;;;;;;;;;24.70;76.40;;;;;;5030322;28;20009;-96
2022/08/26 00:14:17;;;;;;;;;;;24.70;75.60;;;;;;5035077;28;19969;-96
2022/08/26 00:16:43;;;;;;;;;;;24.80;75.60;;;;;;5034474;28;19940;-96
2022/08/26 00:19:09;;;;;;;;;;;24.70;75.20;;;;;;5035295;28;19942;-96
2022/08/26 00:21:37;;;;;;;;;;;24.70;75.20;;;;;;5033603;28;19964;-96
2022/08/26 00:24:06;;;;;;;;;;;24.70;75.40;;;;;;5034316;28;19943;-96
2022/08/26 00:26:33;;;;;;;;;;;24.70;75.40;;;;;;5034054;28;19979;-96
2022/08/26 00:29:03;;;;;;;;;;;24.60;75.60;;;;;;5034959;28;19944;-96
2022/08/26 00:31:29;;;;;;;;;;;24.50;75.70;;;;;;5034730;28;19998;-96
2022/08/26 00:33:55;;;;;;;;;;;24.40;75.60;;;;;;5033018;28;19971;-96
2022/08/26 00:36:22;;;;;;;;;;;24.40;76.10;;;;;;5041147;28;19962;-96
2022/08/26 00:38:51;;;;;;;;;;;24.30;76.30;;;;;;5053199;28;20014;-96
2022/08/26 00:41:18;;;;;;;;;;;24.30;76.20;;;;;;5054366;28;19945;-96
2022/08/26 00:43:43;;;;;;;;;;;24.30;76.70;;;;;;5052677;28;19953;-96
2022/08/26 00:46:13;;;;;;;;;;;24.30;76.60;;;;;;5068542;28;19968;-96
2022/08/26 00:48:41;;;;;;;;;;;24.30;76.20;;;;;;5050969;28;19977;-96
2022/08/26 00:51:18;;;;;;;;;;;24.30;76.40;;;;;;5050650;28;20014;-96
2022/08/26 00:53:49;;;;;;;;;;;24.30;76.60;;;;;;5051445;28;19983;-96
2022/08/26 00:56:30;;;;;;;;;;;24.30;77.00;;;;;;5052029;28;19944;-96
2022/08/26 00:58:57;;;;;;;;;;;24.30;77.20;;;;;;5051512;28;19947;-96
2022/08/26 01:01:25;;;;;;;;;;;24.30;77.20;;;;;;5052144;28;19939;-96
2022/08/26 01:03:51;;;;;;;;;;;24.30;77.80;;;;;;5051339;28;19977;-96
2022/08/26 01:06:17;;;;;;;;;;;24.20;78.10;;;;;;5050805;28;19928;-96
2022/08/26 01:08:43;;;;;;;;;;;24.10;78.00;;;;;;5051247;28;19982;-96
2022/08/26 01:11:10;;;;;;;;;;;24.00;77.50;;;;;;5050426;28;19955;-96
2022/08/26 01:13:37;;;;;;;;;;;24.00;77.90;;;;;;5051787;28;19966;-96
2022/08/26 01:16:04;;;;;;;;;;;23.90;78.10;;;;;;5051116;28;19941;-96
2022/08/26 01:18:30;;;;;;;;;;;24.00;78.00;;;;;;5050210;28;19941;-96
2022/08/26 01:21:14;;;;;;;;;;;24.00;78.00;;;;;;5050622;28;19967;-96
2022/08/26 01:23:43;;;;;;;;;;;24.00;77.90;;;;;;5050516;28;19943;-96
2022/08/26 01:26:15;;;;;;;;;;;24.00;78.00;;;;;;5048885;28;20292;-96
2022/08/26 01:28:41;;;;;;;;;;;24.00;78.10;;;;;;5047536;28;19993;-96
2022/08/26 01:31:09;;;;;;;;;;;23.90;79.00;;;;;;5049142;28;20441;-96
2022/08/26 01:33:55;;;;;;;;;;;23.80;79.80;;;;;;5049671;28;19972;-96
2022/08/26 01:36:22;;;;;;;;;;;23.70;80.30;;;;;;5048207;28;19959;-96
2022/08/26 01:38:48;;;;;;;;;;;23.60;80.40;;;;;;5050488;28;19943;-96
2022/08/26 01:41:15;;;;;;;;;;;23.50;79.40;;;;;;5054636;28;19941;-96
2022/08/26 01:43:45;;;;;;;;;;;23.50;78.90;;;;;;5053723;28;19949;-96
2022/08/26 01:46:12;;;;;;;;;;;23.60;78.40;;;;;;5053116;28;19948;-96
2022/08/26 01:48:44;;;;;;;;;;;23.60;78.30;;;;;;4869985;28;5260819;-96
2022/08/26 01:51:11;;;;;;;;;;;23.60;79.30;;;;;;5054227;28;20008;-96
2022/08/26 01:53:38;;;;;;;;;;;23.60;79.80;;;;;;5053361;28;19963;-96
2022/08/26 01:56:08;;;;;;;;;;;23.50;80.00;;;;;;5053474;28;19971;-96
2022/08/26 01:58:41;;;;;;;;;;;23.50;79.80;;;;;;5053032;28;20404;-96
2022/08/26 02:01:07;;;;;;;;;;;23.50;79.00;;;;;;5052706;28;20010;-96
2022/08/26 02:03:33;;;;;;;;;;;23.50;78.90;;;;;;5052957;28;19972;-96
2022/08/26 02:06:04;;;;;;;;;;;23.50;78.90;;;;;;5054010;28;19949;-96
2022/08/26 02:08:34;;;;;;;;;;;23.50;78.80;;;;;;5053395;28;19941;-96
2022/08/26 02:11:02;;;;;;;;;;;23.50;79.80;;;;;;5054333;28;20259;-96
2022/08/26 02:13:32;;;;;;;;;;;23.40;79.90;;;;;;5053609;28;19966;-96
2022/08/26 02:16:00;;;;;;;;;;;23.40;80.90;;;;;;5053236;28;19946;-96
2022/08/26 02:18:27;;;;;;;;;;;23.30;81.20;;;;;;5054183;28;19945;-96
2022/08/26 02:20:53;;;;;;;;;;;23.20;81.70;;;;;;5053074;28;20002;-96
2022/08/26 02:23:19;;;;;;;;;;;23.20;81.50;;;;;;5053441;28;19947;-96
2022/08/26 02:26:07;;;;;;;;;;;23.10;81.60;;;;;;5053021;28;19947;-96
2022/08/26 02:28:36;;;;;;;;;;;23.10;81.50;;;;;;5047207;28;19940;-96
2022/08/26 02:31:02;;;;;;;;;;;23.10;81.20;;;;;;5053704;28;19967;-96
2022/08/26 02:33:29;;;;;;;;;;;23.10;81.10;;;;;;5052849;28;19963;-96
2022/08/26 02:35:55;;;;;;;;;;;23.00;81.40;;;;;;5053154;28;19960;-96
2022/08/26 02:38:21;;;;;;;;;;;23.00;82.20;;;;;;5053755;28;19990;-96
2022/08/26 02:40:47;;;;;;;;;;;23.00;82.40;;;;;;5054114;28;19942;-96
2022/08/26 02:43:13;;;;;;;;;;;22.90;81.80;;;;;;5053025;28;20404;-96
2022/08/26 02:45:40;;;;;;;;;;;23.00;81.20;;;;;;5052884;28;19943;-96
2022/08/26 02:48:11;;;;;;;;;;;23.00;81.50;;;;;;5053959;28;20040;-96
2022/08/26 02:50:37;;;;;;;;;;;23.00;81.60;;;;;;5054215;28;19944;-96
2022/08/26 02:53:04;;;;;;;;;;;22.90;81.50;;;;;;5051201;28;19952;-96
2022/08/26 02:55:30;;;;;;;;;;;23.00;81.90;;;;;;5046411;28;19994;-96
2022/08/26 02:57:56;;;;;;;;;;;22.80;82.30;;;;;;5046679;28;19987;-96
2022/08/26 03:00:22;;;;;;;;;;;22.80;82.40;;;;;;5049305;28;19948;-96
2022/08/26 03:02:49;;;;;;;;;;;22.80;82.70;;;;;;5048716;28;19985;-96
2022/08/26 03:05:16;;;;;;;;;;;22.70;83.00;;;;;;5065771;28;19945;-96
2022/08/26 03:07:42;;;;;;;;;;;22.50;83.10;;;;;;5050295;28;20047;-96
2022/08/26 03:10:11;;;;;;;;;;;22.50;83.10;;;;;;5050675;28;19948;-96
2022/08/26 03:12:37;;;;;;;;;;;22.40;82.90;;;;;;5050137;28;19946;-96
2022/08/26 03:15:05;;;;;;;;;;;22.40;83.30;;;;;;5049298;28;19961;-96
2022/08/26 03:17:31;;;;;;;;;;;22.30;83.60;;;;;;5049335;28;19939;-96
2022/08/26 03:19:57;;;;;;;;;;;22.30;83.80;;;;;;5049334;28;19983;-96
2022/08/26 03:22:24;;;;;;;;;;;22.20;83.90;;;;;;5050879;28;19946;-96
2022/08/26 03:24:50;;;;;;;;;;;22.10;84.10;;;;;;5049264;28;19943;-96
2022/08/26 03:27:16;;;;;;;;;;;22.10;84.30;;;;;;5051250;28;19937;-96
2022/08/26 03:32:27;;;;;;;;;;;22.10;84.50;;;;;;5052035;28;19949;-96
2022/08/26 03:34:53;;;;;;;;;;;22.10;84.60;;;;;;5050980;28;19966;-96
2022/08/26 03:37:20;;;;;;;;;;;22.10;84.70;;;;;;5051337;28;19954;-96
2022/08/26 03:39:46;;;;;;;;;;;22.00;84.70;;;;;;5051667;28;19944;-96
2022/08/26 03:42:13;;;;;;;;;;;22.10;84.70;;;;;;5052013;28;19964;-96
2022/08/26 03:44:39;;;;;;;;;;;22.10;84.60;;;;;;5049929;28;19941;-96
2022/08/26 03:47:08;;;;;;;;;;;22.10;84.40;;;;;;5050483;28;19998;-96
2022/08/26 03:49:37;;;;;;;;;;;22.10;84.20;;;;;;5050044;28;19976;-96
2022/08/26 03:52:03;;;;;;;;;;;22.10;84.10;;;;;;5051444;28;20393;-96
2022/08/26 03:54:29;;;;;;;;;;;22.10;84.10;;;;;;5050037;28;19999;-96
2022/08/26 03:56:55;;;;;;;;;;;22.00;84.20;;;;;;5049606;28;19948;-96
2022/08/26 03:59:21;;;;;;;;;;;21.90;84.30;;;;;;5050575;28;19974;-96
2022/08/26 04:01:47;;;;;;;;;;;22.00;84.50;;;;;;5047773;28;19936;-96
2022/08/26 04:04:13;;;;;;;;;;;21.90;84.50;;;;;;5048942;28;19943;-96
2022/08/26 04:06:42;;;;;;;;;;;21.90;84.50;;;;;;5048778;28;20349;-96
2022/08/26 04:09:11;;;;;;;;;;;21.90;84.40;;;;;;5049722;28;19967;-96
2022/08/26 04:11:42;;;;;;;;;;;21.90;84.60;;;;;;5049554;28;19951;-96
2022/08/26 04:14:12;;;;;;;;;;;21.80;84.90;;;;;;5049568;28;20106;-96
2022/08/26 04:16:38;;;;;;;;;;;21.70;85.20;;;;;;5051339;28;19990;-96
2022/08/26 04:19:07;;;;;;;;;;;21.70;85.40;;;;;;5052632;28;19945;-96
2022/08/26 04:21:33;;;;;;;;;;;21.70;85.30;;;;;;5052448;28;19947;-96
2022/08/26 04:23:59;;;;;;;;;;;21.60;85.40;;;;;;5051691;28;19957;-96
2022/08/26 04:26:26;;;;;;;;;;;21.70;85.40;;;;;;5052344;28;19945;-96
2022/08/26 04:28:53;;;;;;;;;;;21.80;84.80;;;;;;5052431;28;20005;-96
2022/08/26 04:31:20;;;;;;;;;;;21.80;84.50;;;;;;5052525;28;19954;-96
2022/08/26 04:33:46;;;;;;;;;;;21.80;84.50;;;;;;5056043;28;19972;-96
2022/08/26 04:36:13;;;;;;;;;;;22.00;84.10;;;;;;5055868;28;19990;-96
2022/08/26 04:38:39;;;;;;;;;;;22.00;83.70;;;;;;5055129;28;19967;-96
2022/08/26 04:41:12;;;;;;;;;;;22.00;83.80;;;;;;5054121;28;19946;-96
2022/08/26 04:43:38;;;;;;;;;;;21.90;84.00;;;;;;5054578;28;19962;-96
2022/08/26 04:46:05;;;;;;;;;;;22.00;83.70;;;;;;5054648;28;19948;-96
2022/08/26 04:48:32;;;;;;;;;;;22.00;83.60;;;;;;5053575;28;19984;-96
2022/08/26 04:50:58;;;;;;;;;;;22.10;83.30;;;;;;5055871;28;19954;-96
2022/08/26 04:53:24;;;;;;;;;;;22.10;83.40;;;;;;5038469;28;19964;-96
2022/08/26 04:55:53;;;;;;;;;;;22.10;83.50;;;;;;5053169;28;19942;-96
2022/08/26 04:58:21;;;;;;;;;;;22.00;83.70;;;;;;5049584;28;19951;-96
2022/08/26 05:00:48;;;;;;;;;;;22.00;83.60;;;;;;5052534;28;19941;-96
2022/08/26 05:03:16;;;;;;;;;;;22.00;84.00;;;;;;5053615;28;19949;-96
2022/08/26 05:05:43;;;;;;;;;;;22.00;83.90;;;;;;5037000;28;19940;-96
2022/08/26 05:08:09;;;;;;;;;;;22.00;83.90;;;;;;5037734;28;20381;-96
2022/08/26 05:10:43;;;;;;;;;;;22.10;84.00;;;;;;5037565;28;19946;-96
2022/08/26 05:13:09;;;;;;;;;;;22.00;84.10;;;;;;5037178;28;19939;-96
2022/08/26 05:15:35;;;;;;;;;;;22.10;83.80;;;;;;5054930;28;19952;-96
2022/08/26 05:18:03;;;;;;;;;;;22.20;83.20;;;;;;5054619;28;19941;-96
2022/08/26 05:20:29;;;;;;;;;;;22.30;82.30;;;;;;5054506;28;19948;-96
2022/08/26 05:22:59;;;;;;;;;;;22.30;82.10;;;;;;5037015;28;19999;-96
2022/08/26 05:25:26;;;;;;;;;;;22.40;82.20;;;;;;5054750;28;19936;-96
2022/08/26 05:27:52;;;;;;;;;;;22.50;82.20;;;;;;5035657;28;19945;-96
2022/08/26 05:30:18;;;;;;;;;;;22.60;81.80;;;;;;5053477;28;20401;-96
2022/08/26 05:32:46;;;;;;;;;;;22.60;82.00;;;;;;5054009;28;19953;-96
2022/08/26 05:35:12;;;;;;;;;;;22.70;82.50;;;;;;5051900;28;19962;-96
2022/08/26 05:37:39;;;;;;;;;;;22.80;82.40;;;;;;5053766;28;19966;-96
2022/08/26 05:40:05;;;;;;;;;;;22.80;82.00;;;;;;5054032;28;20077;-96
2022/08/26 05:42:32;;;;;;;;;;;23.00;81.70;;;;;;5035757;28;19943;-96
2022/08/26 05:44:58;;;;;;;;;;;23.10;80.70;;;;;;5034974;28;20049;-96
2022/08/26 05:47:25;;;;;;;;;;;23.20;80.00;;;;;;5052341;28;19936;-96
2022/08/26 05:49:50;;;;;;;;;;;23.30;80.00;;;;;;5032739;28;19981;-96
2022/08/26 05:52:16;;;;;;;;;;;23.30;79.40;;;;;;5045774;28;19947;-96
2022/08/26 05:54:42;;;;;;;;;;;23.50;78.50;;;;;;5048128;28;19959;-96
2022/08/26 05:57:08;;;;;;;;;;;23.60;77.50;;;;;;5047104;28;19939;-96
2022/08/26 05:59:33;;;;;;;;;;;23.80;76.60;;;;;;5047213;28;19934;-96
2022/08/26 06:02:00;;;;;;;;;;;23.90;76.40;;;;;;5046775;28;20010;-96
2022/08/26 06:04:26;;;;;;;;;;;24.00;76.10;;;;;;5031220;28;20048;-96
2022/08/26 06:06:52;;;;;;;;;;;24.10;75.90;;;;;;5049040;28;19945;-96
2022/08/26 06:09:18;;;;;;;;;;;24.20;75.70;;;;;;5032586;28;19943;-96
2022/08/26 06:11:47;;;;;;;;;;;24.20;75.00;;;;;;5049065;28;20398;-96
2022/08/26 06:14:13;;;;;;;;;;;24.20;74.50;;;;;;5049306;28;19965;-96
2022/08/26 06:16:42;;;;;;;;;;;24.20;74.20;;;;;;5030740;28;19946;-96
2022/08/26 06:19:09;;;;;;;;;;;24.20;74.70;;;;;;5030354;28;19943;-96
2022/08/26 06:21:37;;;;;;;;;;;24.20;74.60;;;;;;5030118;28;19987;-96
2022/08/26 06:26:51;;;;;;;;;;;24.30;74.20;;;;;;5047092;28;19946;-96
2022/08/26 06:29:18;;;;;;;;;;;24.40;73.00;;;;;;5046146;28;19950;-96
2022/08/26 06:31:44;;;;;;;;;;;24.50;72.80;;;;;;5046183;28;19948;-96
2022/08/26 06:34:10;;;;;;;;;;;24.50;71.70;;;;;;5027031;28;19961;-96
2022/08/26 06:36:38;;;;;;;;;;;24.60;71.10;;;;;;5045183;28;19963;-96
2022/08/26 06:39:05;;;;;;;;;;;24.70;71.70;;;;;;5043429;28;20025;-96
2022/08/26 06:41:32;;;;;;;;;;;24.80;70.70;;;;;;5041969;28;19956;-96
2022/08/26 06:43:59;;;;;;;;;;;24.80;70.80;;;;;;5044858;28;19947;-96
2022/08/26 06:46:25;;;;;;;;;;;25.00;70.50;;;;;;5042632;28;19939;-96
2022/08/26 06:48:52;;;;;;;;;;;25.20;70.10;;;;;;5043011;28;19977;-96
2022/08/26 06:51:22;;;;;;;;;;;25.30;69.80;;;;;;5044975;28;20003;-96
2022/08/26 06:53:49;;;;;;;;;;;25.50;69.80;;;;;;5043646;28;19967;-96
2022/08/26 06:56:17;;;;;;;;;;;25.60;68.70;;;;;;5041413;28;19949;-96
2022/08/26 06:58:43;;;;;;;;;;;25.80;68.10;;;;;;5043246;28;19945;-96
2022/08/26 07:01:23;;;;;;;;;;;25.90;67.50;;;;;;5043496;28;19990;-96
2022/08/26 07:03:50;;;;;;;;;;;25.90;68.00;;;;;;5043449;28;19941;-96
2022/08/26 07:06:18;;;;;;;;;;;26.00;67.30;;;;;;5025457;28;19943;-96
2022/08/26 07:08:44;;;;;;;;;;;26.00;67.30;;;;;;5025238;28;19967;-96
2022/08/26 07:11:10;;;;;;;;;;;26.00;66.60;;;;;;5025621;28;19946;-96
2022/08/26 07:13:36;;;;;;;;;;;26.10;66.40;;;;;;5027273;28;20016;-96
2022/08/26 07:16:03;;;;;;;;;;;26.10;66.90;;;;;;5044838;28;19944;-96
2022/08/26 07:18:29;;;;;;;;;;;26.10;67.10;;;;;;5028197;28;19947;-96
2022/08/26 07:20:55;;;;;;;;;;;26.10;66.70;;;;;;5046733;28;20003;-96
2022/08/26 07:23:21;;;;;;;;;;;26.20;66.80;;;;;;5027731;28;19984;-96
2022/08/26 07:25:46;;;;;;;;;;;26.30;66.30;;;;;;5042261;28;19945;-96
2022/08/26 07:28:12;;;;;;;;;;;26.30;66.10;;;;;;5043313;28;20325;-96
2022/08/26 07:30:39;;;;;;;;;;;26.20;66.00;;;;;;5044100;28;19946;-96
2022/08/26 07:33:05;;;;;;;;;;;26.30;66.00;;;;;;5028222;28;19944;-96
2022/08/26 07:35:31;;;;;;;;;;;26.30;65.00;;;;;;5027979;28;20023;-96
2022/08/26 07:37:56;;;;;;;;;;;26.30;65.00;;;;;;5042296;28;19939;-96
2022/08/26 07:40:22;;;;;;;;;;;26.40;64.20;;;;;;5039588;28;19952;-96
2022/08/26 07:42:48;;;;;;;;;;;26.50;64.40;;;;;;5041808;28;19946;-96
2022/08/26 07:45:14;;;;;;;;;;;26.60;64.00;;;;;;5023299;28;19973;-96
2022/08/26 07:47:40;;;;;;;;;;;26.70;62.60;;;;;;5020307;28;20315;-95
2022/08/26 07:50:05;;;;;;;;;;;26.70;62.90;;;;;;5065046;22;20039;-96
2022/08/26 07:52:31;;;;;;;;;;;26.80;62.50;;;;;;5058001;28;19964;-96
2022/08/26 07:54:58;;;;;;;;;;;26.90;63.10;;;;;;5062492;28;19963;-96
2022/08/26 07:57:24;;;;;;;;;;;27.00;63.40;;;;;;5043368;28;19950;-96
2022/08/26 07:59:50;;;;;;;;;;;27.10;63.50;;;;;;5044027;28;20001;-96
2022/08/26 08:05:00;;;;;;;;;;;27.20;63.20;;;;;;5060303;28;20456;-96
2022/08/26 08:07:26;;;;;;;;;;;27.20;62.30;;;;;;5052823;28;19944;-96
2022/08/26 08:09:52;;;;;;;;;;;27.20;61.70;;;;;;5072208;28;19979;-95
2022/08/26 08:12:18;;;;;;;;;;;27.20;61.40;;;;;;5072430;28;19947;-96
2022/08/26 08:14:45;;;;;;;;;;;27.20;61.30;;;;;;5070611;28;20354;-96
2022/08/26 08:17:12;;;;;;;;;;;27.10;61.80;;;;;;5053850;28;19943;-95
2022/08/26 08:19:38;;;;;;;;;;;27.10;60.00;;;;;;5072036;28;19982;-96
2022/08/26 08:22:04;;;;;;;;;;;27.10;60.20;;;;;;5071497;28;19958;-96
2022/08/26 08:24:31;;;;;;;;;;;27.00;60.10;;;;;;5071801;28;19970;-96
2022/08/26 08:26:57;;;;;;;;;;;27.00;60.20;;;;;;5054178;28;20038;-96
2022/08/26 08:29:23;;;;;;;;;;;27.00;59.30;;;;;;5056370;28;20007;-96
2022/08/26 08:31:52;;;;;;;;;;;27.00;59.80;;;;;;5072864;28;19947;-96
2022/08/26 08:34:18;;;;;;;;;;;27.10;58.80;;;;;;5071947;28;19954;-96
2022/08/26 08:36:45;;;;;;;;;;;27.10;59.00;;;;;;5082840;28;20000;-96
2022/08/26 08:39:11;;;;;;;;;;;27.30;57.90;;;;;;5073296;28;19982;-96
2022/08/26 08:41:36;;;;;;;;;;;27.40;57.90;;;;;;5090308;28;19940;-96
2022/08/26 08:44:03;;;;;;;;;;;27.60;58.60;;;;;;5090018;28;19984;-96
2022/08/26 08:46:29;;;;;;;;;;;27.70;58.10;;;;;;5088641;28;20411;-96
2022/08/26 08:48:57;;;;;;;;;;;27.80;57.30;;;;;;5079049;28;19996;-96
2022/08/26 08:51:46;;;;;;;;;;;28.10;57.80;;;;;;5083739;28;19975;-96
2022/08/26 08:54:12;;;;;;;;;;;28.20;58.10;;;;;;5071242;28;19972;-96
2022/08/26 08:56:38;;;;;;;;;;;28.30;55.70;;;;;;5086727;28;20042;-96
2022/08/26 08:59:23;;;;;;;;;;;28.30;55.20;;;;;;5084940;28;19980;-96
2022/08/26 09:02:01;;;;;;;;;;;28.30;55.00;;;;;;5084924;28;19949;-96
2022/08/26 09:04:45;;;;;;;;;;;28.30;56.10;;;;;;5086030;28;19936;-96
2022/08/26 09:07:15;;;;;;;;;;;28.40;57.50;;;;;;5070997;28;19943;-96
2022/08/26 09:09:46;;;;;;;;;;;28.50;56.00;;;;;;5087549;28;19936;-96
2022/08/26 09:12:15;;;;;;;;;;;28.60;55.50;;;;;;5089180;28;19938;-96
2022/08/26 09:14:41;;;;;;;;;;;28.60;55.00;;;;;;5089174;28;20012;-96
2022/08/26 09:17:19;;;;;;;;;;;28.70;55.70;;;;;;5087229;28;20449;-96
2022/08/26 09:19:50;;;;;;;;;;;28.70;56.20;;;;;;5084034;28;19939;-96
2022/08/26 09:22:34;;;;;;;;;;;28.80;55.60;;;;;;5084081;28;19937;-96
2022/08/26 09:25:00;;;;;;;;;;;28.90;55.90;;;;;;5088131;28;19933;-96
2022/08/26 09:27:36;;;;;;;;;;;29.10;55.40;;;;;;5085671;28;19978;-96
2022/08/26 09:30:03;;;;;;;;;;;29.10;53.70;;;;;;5069384;28;19945;-96
2022/08/26 09:32:30;;;;;;;;;;;29.20;53.00;;;;;;5087338;28;20009;-96
2022/08/26 09:35:01;;;;;;;;;;;29.30;52.50;;;;;;5085593;28;19955;-96
2022/08/26 09:37:32;;;;;;;;;;;29.20;51.90;;;;;;5069308;28;19959;-96
2022/08/26 09:40:11;;;;;;;;;;;29.40;52.60;;;;;;5088395;28;20414;-96
2022/08/26 09:42:36;;;;;;;;;;;29.70;53.70;;;;;;5068963;28;19954;-96
2022/08/26 09:45:09;;;;;;;;;;;30.00;52.00;;;;;;5084334;28;19976;-96
2022/08/26 09:47:37;;;;;;;;;;;30.20;51.60;;;;;;5087117;28;19942;-96
2022/08/26 09:50:25;;;;;;;;;;;30.30;50.90;;;;;;5083299;28;20006;-96
2022/08/26 09:53:12;;;;;;;;;;;30.60;51.50;;;;;;5081111;28;19968;-96
2022/08/26 09:55:40;;;;;;;;;;;30.80;50.60;;;;;;5066497;28;19955;-96
2022/08/26 09:58:07;;;;;;;;;;;31.00;50.00;;;;;;5069915;28;19995;-96
2022/08/26 10:00:35;;;;;;;;;;;31.20;48.90;;;;;;5068995;28;19948;-96
2022/08/26 10:03:02;;;;;;;;;;;31.20;48.00;;;;;;5086840;28;19944;-96
2022/08/26 10:05:29;;;;;;;;;;;31.30;47.80;;;;;;5087463;28;19945;-96
2022/08/26 10:07:56;;;;;;;;;;;31.30;47.20;;;;;;5067431;28;20433;-96
2022/08/26 10:10:36;;;;;;;;;;;31.20;47.10;;;;;;5085215;28;20433;-96
2022/08/26 10:13:08;;;;;;;;;;;31.00;47.10;;;;;;5084693;28;20044;-96
2022/08/26 10:15:54;;;;;;;;;;;30.80;47.70;;;;;;5087641;28;19970;-96
2022/08/26 10:18:40;;;;;;;;;;;30.80;49.30;;;;;;5067475;28;20002;-96
2022/08/26 10:21:09;;;;;;;;;;;30.60;49.20;;;;;;5085312;28;19985;-96
2022/08/26 10:23:41;;;;;;;;;;;30.60;49.30;;;;;;5084689;28;19936;-96
2022/08/26 10:26:11;;;;;;;;;;;30.60;50.40;;;;;;5085058;28;19941;-96
2022/08/26 10:28:40;;;;;;;;;;;30.70;48.90;;;;;;5068245;28;19979;-96
2022/08/26 10:31:18;;;;;;;;;;;30.90;50.40;;;;;;5087045;28;19942;-96
2022/08/26 10:33:44;;;;;;;;;;;31.00;49.60;;;;;;5089500;28;20014;-96
2022/08/26 10:36:48;;;;;;;;;;;31.20;50.20;;;;;;5072665;28;19956;-96
2022/08/26 10:39:04;;;;;;;;;;;31.20;48.40;;;;;;5090803;28;19948;-96
2022/08/26 10:41:36;;;;;;;;;;;31.50;47.50;;;;;;5088977;28;19939;-96
2022/08/26 10:44:04;;;;;;;;;;;31.40;45.70;;;;;;5085504;28;19939;-96
2022/08/26 10:46:38;;;;;;;;;;;31.20;47.70;;;;;;5069057;28;20005;-96
2022/08/26 10:49:07;;;;;;;;;;;31.20;47.20;;;;;;5069369;28;19977;-96
2022/08/26 10:51:37;;;;;;;;;;;31.40;47.60;;;;;;5086017;28;20217;-96
2022/08/26 10:54:21;;;;;;;;;;;31.30;46.70;;;;;;5087863;28;20047;-96
2022/08/26 10:56:53;;;;;;;;;;;31.20;46.60;;;;;;5069332;28;19941;-96
2022/08/26 10:59:39;;;;;;;;;;;31.40;47.20;;;;;;5071587;28;19995;-96
2022/08/26 11:02:27;;;;;;;;;;;31.40;45.30;;;;;;5089045;28;19938;-96
2022/08/26 11:04:57;;;;;;;;;;;31.60;46.20;;;;;;5072114;28;19952;-96
2022/08/26 11:07:44;;;;;;;;;;;31.70;44.60;;;;;;5071293;28;20391;-96
2022/08/26 11:10:20;;;;;;;;;;;31.60;45.80;;;;;;5072802;28;19967;-96
2022/08/26 11:12:47;;;;;;;;;;;31.80;47.20;;;;;;5070916;28;19951;-96
2022/08/26 11:15:19;;;;;;;;;;;32.00;46.40;;;;;;5072989;28;20056;-96
2022/08/26 11:17:44;;;;;;;;;;;32.30;47.00;;;;;;5089481;28;19963;-96
2022/08/26 11:20:28;;;;;;;;;;;32.40;43.70;;;;;;5085314;28;19943;-96
2022/08/26 11:22:55;;;;;;;;;;;32.20;44.30;;;;;;5084116;28;19946;-96
2022/08/26 11:25:24;;;;;;;;;;;32.20;45.60;;;;;;5085112;28;20027;-96
2022/08/26 11:27:53;;;;;;;;;;;32.20;45.40;;;;;;5088704;28;19937;-96
2022/08/26 11:30:20;;;;;;;;;;;32.50;42.60;;;;;;5089022;28;19944;-96
2022/08/26 11:32:47;;;;;;;;;;;32.40;42.00;;;;;;5089123;28;19942;-96
2022/08/26 11:35:16;;;;;;;;;;;32.50;41.90;;;;;;5090476;28;19966;-96
2022/08/26 11:37:59;;;;;;;;;;;32.50;42.20;;;;;;5067879;28;20367;-96
2022/08/26 11:40:29;;;;;;;;;;;32.30;42.50;;;;;;5067169;28;19941;-96
2022/08/26 11:43:05;;;;;;;;;;;32.50;42.80;;;;;;5066073;28;20215;-96
2022/08/26 11:45:37;;;;;;;;;;;32.50;43.10;;;;;;5084883;28;19946;-96
2022/08/26 11:48:19;;;;;;;;;;;32.70;43.70;;;;;;5084592;28;19977;-96
2022/08/26 11:51:14;;;;;;;;;;;32.80;44.60;;;;;;5069149;28;20060;-96
2022/08/26 11:53:43;;;;;;;;;;;32.80;42.10;;;;;;5080483;28;19959;-96
2022/08/26 11:56:16;;;;;;;;;;;33.00;42.40;;;;;;5088705;28;19939;-96
2022/08/26 11:58:43;;;;;;;;;;;33.20;42.00;;;;;;5072014;28;19969;-96
2022/08/26 12:01:12;;;;;;;;;;;33.30;43.20;;;;;;5089486;28;19948;-96
2022/08/26 12:03:43;;;;;;;;;;;33.50;40.20;;;;;;5082510;28;19987;-96
2022/08/26 12:06:12;;;;;;;;;;;33.20;40.80;;;;;;5090895;28;20016;-96
2022/08/26 12:08:41;;;;;;;;;;;33.00;40.60;;;;;;5067628;28;19941;-96
2022/08/26 12:11:08;;;;;;;;;;;33.10;41.40;;;;;;5080377;28;20034;-96
2022/08/26 12:13:35;;;;;;;;;;;33.20;40.80;;;;;;5080865;28;19945;-96
2022/08/26 12:16:01;;;;;;;;;;;33.30;40.50;;;;;;5080475;28;19942;-96
2022/08/26 12:18:45;;;;;;;;;;;33.40;40.90;;;;;;5269354;22;19992;-96
2022/08/26 12:21:21;;;;;;;;;;;34.00;40.40;;;;;;5287010;22;19980;-96
2022/08/26 12:23:49;;;;;;;;;;;34.80;38.70;;;;;;5069222;28;19944;-96
2022/08/26 12:26:36;;;;;;;;;;;35.50;37.80;;;;;;5046890;28;19948;-96
2022/08/26 12:29:05;;;;;;;;;;;36.00;35.90;;;;;;5065719;28;19936;-96
2022/08/26 12:31:32;;;;;;;;;;;36.20;34.60;;;;;;5043002;28;19947;-96
2022/08/26 12:33:59;;;;;;;;;;;36.30;34.60;;;;;;5048220;28;19962;-96
2022/08/26 12:36:30;;;;;;;;;;;36.60;34.00;;;;;;5049776;28;20018;-96
2022/08/26 12:39:05;;;;;;;;;;;36.80;33.90;;;;;;5078404;28;19965;-96
2022/08/26 12:41:40;;;;;;;;;;;37.00;33.20;;;;;;5066582;28;20446;-96
2022/08/26 12:44:05;;;;;;;;;;;37.10;34.50;;;;;;5063630;28;20071;-96
2022/08/26 12:46:31;;;;;;;;;;;36.80;35.50;;;;;;5080389;28;19949;-96
2022/08/26 12:49:00;;;;;;;;;;;37.50;34.60;;;;;;5073858;28;19936;-96
2022/08/26 12:51:27;;;;;;;;;;;37.10;33.20;;;;;;5060962;28;19951;-96
2022/08/26 12:53:53;;;;;;;;;;;36.20;34.70;;;;;;5078715;28;20006;-96
2022/08/26 12:56:23;;;;;;;;;;;36.50;34.70;;;;;;5066728;28;19944;-96
2022/08/26 12:59:03;;;;;;;;;;;37.40;32.70;;;;;;5064001;28;19940;-96
2022/08/26 13:01:36;;;;;;;;;;;38.50;31.80;;;;;;5079680;28;19936;-96
2022/08/26 13:04:02;;;;;;;;;;;38.70;31.40;;;;;;5059336;28;19949;-96
2022/08/26 13:06:30;;;;;;;;;;;39.10;30.20;;;;;;5078583;28;19965;-96
2022/08/26 13:09:00;;;;;;;;;;;39.40;30.10;;;;;;5060097;28;20401;-96
2022/08/26 13:11:25;;;;;;;;;;;39.30;29.70;;;;;;5059294;28;20061;-96
2022/08/26 13:13:54;;;;;;;;;;;39.80;29.00;;;;;;5078131;28;19991;-96
2022/08/26 13:16:20;;;;;;;;;;;40.60;29.30;;;;;;5081110;28;19940;-96
2022/08/26 13:18:46;;;;;;;;;;;41.70;28.10;;;;;;5076572;28;20005;-96
2022/08/26 13:21:16;;;;;;;;;;;42.70;26.90;;;;;;5076456;28;20028;-96
2022/08/26 13:23:42;;;;;;;;;;;43.60;25.20;;;;;;5076703;28;19937;-96
2022/08/26 13:26:07;;;;;;;;;;;44.10;25.40;;;;;;5076368;28;19947;-96
2022/08/26 13:28:33;;;;;;;;;;;44.70;24.50;;;;;;5078230;28;19943;-96
2022/08/26 13:30:59;;;;;;;;;;;44.00;24.40;;;;;;5061211;28;19946;-96
2022/08/26 13:33:25;;;;;;;;;;;42.10;26.40;;;;;;5079657;28;20029;-96
2022/08/26 13:35:50;;;;;;;;;;;41.20;27.80;;;;;;5079439;28;19976;-96
2022/08/26 13:38:16;;;;;;;;;;;41.50;27.80;;;;;;5080659;28;19938;-96
2022/08/26 13:40:46;;;;;;;;;;;41.10;28.70;;;;;;5064552;28;19948;-96
2022/08/26 13:43:11;;;;;;;;;;;39.10;31.40;;;;;;5080020;28;19946;-96
2022/08/26 13:45:37;;;;;;;;;;;38.00;32.80;;;;;;5081837;28;19970;-96
2022/08/26 13:48:04;;;;;;;;;;;37.60;33.90;;;;;;5079176;28;19944;-96
2022/08/26 13:50:29;;;;;;;;;;;37.20;34.10;;;;;;5076801;28;19943;-96
2022/08/26 13:52:55;;;;;;;;;;;37.20;35.30;;;;;;5058775;28;20299;-96
2022/08/26 13:55:21;;;;;;;;;;;37.20;34.90;;;;;;5078290;28;19967;-96
2022/08/26 13:57:46;;;;;;;;;;;37.40;34.70;;;;;;5081538;28;20391;-96
2022/08/26 14:00:12;;;;;;;;;;;37.00;35.00;;;;;;5064366;28;19945;-96
2022/08/26 14:02:38;;;;;;;;;;;36.90;34.30;;;;;;5068882;28;19952;-96
2022/08/26 14:05:04;;;;;;;;;;;37.30;33.90;;;;;;5069314;28;19954;-96
2022/08/26 14:07:30;;;;;;;;;;;38.00;33.10;;;;;;5086912;28;19940;-96
2022/08/26 14:09:55;;;;;;;;;;;38.40;32.60;;;;;;5066640;28;19947;-96
2022/08/26 14:12:21;;;;;;;;;;;37.50;33.20;;;;;;5082063;28;20347;-96
2022/08/26 14:14:47;;;;;;;;;;;37.10;34.50;;;;;;5082837;28;19971;-96
2022/08/26 14:17:18;;;;;;;;;;;36.80;35.40;;;;;;5066637;28;19971;-96
2022/08/26 14:19:44;;;;;;;;;;;36.70;35.50;;;;;;5085811;28;19943;-96
2022/08/26 14:22:10;;;;;;;;;;;37.40;34.20;;;;;;5085801;28;19978;-96
2022/08/26 14:24:36;;;;;;;;;;;37.20;34.80;;;;;;5085526;28;19973;-96
2022/08/26 14:27:01;;;;;;;;;;;37.40;33.50;;;;;;5083626;28;19941;-96
2022/08/26 14:29:27;;;;;;;;;;;37.10;33.60;;;;;;5061973;28;19984;-96
2022/08/26 14:31:54;;;;;;;;;;;35.90;35.60;;;;;;5063386;28;19948;-96
2022/08/26 14:34:19;;;;;;;;;;;35.80;35.60;;;;;;5063769;28;19962;-96